Terminal Aerodrome Forecast
Issued by NWS Wilmington, OH

Current Version | Previous Version | Graphics & Text | Print | Product List | Glossary On
Versions: 1 2 3 4 5 6 7 8 9 10 11 12 13 14 15 16 17 18 19 20 21
422
FTUS41 KILN 142337
TAFILN
TAF
KILN 142337Z 1500/1524 VRB03KT P6SM BKN250
     FM150400 11005KT P6SM OVC070
     FM150800 15005KT 4SM -SN OVC040
     FM151000 15007KT 2SM -SN OVC015
     FM151300 17010KT P6SM VCSH OVC015
     FM151800 20011G18KT 1SM -SN BR OVC008
     FM152200 22012G18KT 5SM -SN BR OVC012=

USA.gov is the U.S. government's official web portal to all federal, state and local government web resources and services.